NEOK1: Neosho R at Neosho Rapids, KS

                                SHEF ID:       NEOK1     NEOSHO R AT NEOSHO RAPIDS, KS
STATION TYPE:

STAGE RIV-FLOW BAT-LOAD
ft cfs volt
Ccp-Rev Ccp-Rev Ccp-Rev
(America/Chicago)
04/30 00:00 11.05 6643 12.53
04/30 01:00 10.97 6577 12.50
04/30 02:00 10.90 6519 12.47
04/30 03:00 10.84 6469 12.44
04/30 04:00 10.77 6411 12.42
04/30 05:00 10.71 6362 12.38
04/30 06:00 10.65 6312 12.34
04/30 07:00 10.59 6263 12.31
04/30 08:00 10.54 6222 12.54
04/30 09:00 10.49 6181 13.26
04/30 10:00 10.44 6141 13.32
04/30 11:00 10.40 6108 13.23
04/30 12:00 10.35 6067 13.15
04/30 13:00 10.31 6035 13.11
04/30 14:00 10.27 6002 12.99
04/30 15:00 10.23 5970 12.93
04/30 16:00 10.19 5938 12.93
04/30 17:00 10.15 5905 12.91
04/30 18:00 10.12 5881 12.91
04/30 19:00 10.08 5849 12.90
04/30 20:00 10.05 5825 12.76
04/30 21:00 10.02 5801 12.62
04/30 22:00 9.99 5777 12.58
04/30 23:00 9.96 5753 12.55
Data processed at Fri 01May2026 04:36 GMT

NOTICE: If you are parsing this page

Please convert to using our Data API. Starting early 2026 we will be migrating to: https://water.usace.army.mil with modern pages rendered in JavaScript. When this migration completes you will no longer be able to scrape this page! CWMSDataAPI (CDA)

Timeseries IDs (TSIDs)

TSIDs used from left to right in the data table
NEOR.Stage.Inst.1Hour.0.Ccp-Rev
NEOR.Flow.Inst.1Hour.0.Ccp-Rev
NEOR.Volt-Battery Load.Inst.1Hour.0.Ccp-Rev

                            

All information presented herein is the property of the government of the United States of America and may be revised or deleted at any time without prior notice. Dissemination of this information without the expressed written consent of the Public Affairs Office, Tulsa District U.S. Army Corps of Engineers is strictly prohibited. These data are gathered electronically and, as presented, have NOT undergone any form of quality control. These data are NOT guaranteed to be valid or correct.